sensor_id;sensor_type;location;lat;lon;timestamp;pressure;altitude;pressure_sealevel;temperature;humidity
13080;BME280;6606;49.154;9.280;2023-02-28T00:00:24;100539.47;;;-0.64;100.00
13080;BME280;6606;49.154;9.280;2023-02-28T00:03:06;100537.75;;;-0.63;100.00
13080;BME280;6606;49.154;9.280;2023-02-28T00:05:47;100540.34;;;-0.62;100.00
13080;BME280;6606;49.154;9.280;2023-02-28T00:08:29;100538.66;;;-0.57;100.00
13080;BME280;6606;49.154;9.280;2023-02-28T00:11:14;100535.13;;;-0.65;100.00
13080;BME280;6606;49.154;9.280;2023-02-28T00:13:56;100536.81;;;-0.70;100.00
13080;BME280;6606;49.154;9.280;2023-02-28T00:16:37;100535.13;;;-0.65;100.00
13080;BME280;6606;49.154;9.280;2023-02-28T00:19:19;100531.63;;;-0.67;100.00
13080;BME280;6606;49.154;9.280;2023-02-28T00:22:01;100535.09;;;-0.68;100.00
13080;BME280;6606;49.154;9.280;2023-02-28T00:24:42;100538.53;;;-0.72;100.00
13080;BME280;6606;49.154;9.280;2023-02-28T00:27:25;100532.47;;;-0.70;100.00
13080;BME280;6606;49.154;9.280;2023-02-28T00:30:10;100533.34;;;-0.69;100.00
13080;BME280;6606;49.154;9.280;2023-02-28T00:32:52;100530.78;;;-0.68;100.00
13080;BME280;6606;49.154;9.280;2023-02-28T00:35:34;100535.94;;;-0.74;100.00
13080;BME280;6606;49.154;9.280;2023-02-28T00:38:16;100545.38;;;-0.83;100.00
13080;BME280;6606;49.154;9.280;2023-02-28T00:40:58;100539.28;;;-0.84;100.00
13080;BME280;6606;49.154;9.280;2023-02-28T00:43:46;100539.31;;;-0.81;100.00
13080;BME280;6606;49.154;9.280;2023-02-28T00:46:27;100541.84;;;-0.89;100.00
13080;BME280;6606;49.154;9.280;2023-02-28T00:49:12;100536.66;;;-0.85;100.00
13080;BME280;6606;49.154;9.280;2023-02-28T00:51:54;100533.16;;;-0.88;100.00
13080;BME280;6606;49.154;9.280;2023-02-28T00:54:36;100540.06;;;-0.94;100.00
13080;BME280;6606;49.154;9.280;2023-02-28T00:57:18;100530.53;;;-0.92;100.00
13080;BME280;6606;49.154;9.280;2023-02-28T01:00:01;100534.78;;;-0.99;100.00
13080;BME280;6606;49.154;9.280;2023-02-28T01:02:47;100534.72;;;-1.08;100.00
13080;BME280;6606;49.154;9.280;2023-02-28T01:05:28;100536.50;;;-1.01;100.00
13080;BME280;6606;49.154;9.280;2023-02-28T01:08:10;100537.41;;;-1.00;100.00
13080;BME280;6606;49.154;9.280;2023-02-28T01:10:53;100526.94;;;-1.05;100.00
13080;BME280;6606;49.154;9.280;2023-02-28T01:13:36;100540.75;;;-1.09;100.00
13080;BME280;6606;49.154;9.280;2023-02-28T01:16:19;100531.19;;;-1.13;100.00
13080;BME280;6606;49.154;9.280;2023-02-28T01:19:01;100520.81;;;-1.10;100.00
13080;BME280;6606;49.154;9.280;2023-02-28T01:21:43;100529.41;;;-1.14;100.00
13080;BME280;6606;49.154;9.280;2023-02-28T01:24:27;100532.09;;;-1.08;100.00
13080;BME280;6606;49.154;9.280;2023-02-28T01:27:08;100533.78;;;-1.13;100.00
13080;BME280;6606;49.154;9.280;2023-02-28T01:29:51;100534.63;;;-1.14;100.00
13080;BME280;6606;49.154;9.280;2023-02-28T01:32:34;100521.69;;;-1.08;100.00
13080;BME280;6606;49.154;9.280;2023-02-28T01:35:16;100528.63;;;-1.07;100.00
13080;BME280;6606;49.154;9.280;2023-02-28T01:37:58;100533.78;;;-1.12;100.00
13080;BME280;6606;49.154;9.280;2023-02-28T01:40:40;100536.38;;;-1.13;100.00
13080;BME280;6606;49.154;9.280;2023-02-28T01:43:23;100531.09;;;-1.19;100.00
13080;BME280;6606;49.154;9.280;2023-02-28T01:46:05;100529.31;;;-1.23;100.00
13080;BME280;6606;49.154;9.280;2023-02-28T01:48:51;100526.72;;;-1.23;100.00
13080;BME280;6606;49.154;9.280;2023-02-28T01:51:37;100529.31;;;-1.23;100.00
13080;BME280;6606;49.154;9.280;2023-02-28T01:54:22;100529.38;;;-1.17;100.00
13080;BME280;6606;49.154;9.280;2023-02-28T01:57:09;100521.50;;;-1.25;100.00
13080;BME280;6606;49.154;9.280;2023-02-28T01:59:54;100513.72;;;-1.23;100.00
13080;BME280;6606;49.154;9.280;2023-02-28T02:02:40;100517.19;;;-1.24;100.00
13080;BME280;6606;49.154;9.280;2023-02-28T02:05:26;100510.06;;;-1.38;100.00
13080;BME280;6606;49.154;9.280;2023-02-28T02:08:11;100516.16;;;-1.40;100.00
13080;BME280;6606;49.154;9.280;2023-02-28T02:10:55;100519.59;;;-1.40;100.00
13080;BME280;6606;49.154;9.280;2023-02-28T02:13:55;100513.47;;;-1.45;100.00
13080;BME280;6606;49.154;9.280;2023-02-28T02:16:51;100518.69;;;-1.45;100.00
13080;BME280;6606;49.154;9.280;2023-02-28T02:20:01;100512.66;;;-1.42;100.00
13080;BME280;6606;49.154;9.280;2023-02-28T02:23:15;100504.78;;;-1.47;100.00
13080;BME280;6606;49.154;9.280;2023-02-28T02:26:16;100507.44;;;-1.41;100.00
13080;BME280;6606;49.154;9.280;2023-02-28T02:29:34;100500.44;;;-1.46;100.00
13080;BME280;6606;49.154;9.280;2023-02-28T02:32:48;100503.06;;;-1.46;100.00
13080;BME280;6606;49.154;9.280;2023-02-28T02:35:43;100502.13;;;-1.53;100.00
13080;BME280;6606;49.154;9.280;2023-02-28T02:38:32;100497.72;;;-1.57;100.00
13080;BME280;6606;49.154;9.280;2023-02-28T02:41:18;100496.84;;;-1.58;100.00
13080;BME280;6606;49.154;9.280;2023-02-28T02:44:07;100499.56;;;-1.50;100.00
13080;BME280;6606;49.154;9.280;2023-02-28T02:46:55;100499.53;;;-1.53;100.00
13080;BME280;6606;49.154;9.280;2023-02-28T02:49:44;100501.13;;;-1.63;100.00
13080;BME280;6606;49.154;9.280;2023-02-28T02:52:34;100504.63;;;-1.59;100.00
13080;BME280;6606;49.154;9.280;2023-02-28T02:55:20;100495.13;;;-1.59;100.00
13080;BME280;6606;49.154;9.280;2023-02-28T02:58:05;100497.72;;;-1.59;100.00
13080;BME280;6606;49.154;9.280;2023-02-28T03:00:52;100494.25;;;-1.58;100.00
13080;BME280;6606;49.154;9.280;2023-02-28T03:03:35;100497.78;;;-1.51;100.00
13080;BME280;6606;49.154;9.280;2023-02-28T03:06:17;100501.19;;;-1.57;100.00
13080;BME280;6606;49.154;9.280;2023-02-28T03:09:01;100501.31;;;-1.46;100.00
13080;BME280;6606;49.154;9.280;2023-02-28T03:11:43;100500.44;;;-1.48;100.00
13080;BME280;6606;49.154;9.280;2023-02-28T03:14:33;100492.75;;;-1.39;100.00
13080;BME280;6606;49.154;9.280;2023-02-28T03:17:34;100495.44;;;-1.31;100.00
13080;BME280;6606;49.154;9.280;2023-02-28T03:20:27;100491.09;;;-1.30;100.00
13080;BME280;6606;49.154;9.280;2023-02-28T03:23:16;100489.44;;;-1.22;100.00
13080;BME280;6606;49.154;9.280;2023-02-28T03:26:03;100491.22;;;-1.21;100.00
13080;BME280;6606;49.154;9.280;2023-02-28T03:28:53;100501.72;;;-1.09;100.00
13080;BME280;6606;49.154;9.280;2023-02-28T03:31:38;100497.53;;;-0.96;100.00
13080;BME280;6606;49.154;9.280;2023-02-28T03:34:29;100496.69;;;-0.94;100.00
13080;BME280;6606;49.154;9.280;2023-02-28T03:37:14;100488.94;;;-0.88;100.00
13080;BME280;6606;49.154;9.280;2023-02-28T03:40:01;100485.53;;;-0.82;100.00
13080;BME280;6606;49.154;9.280;2023-02-28T03:42:49;100482.94;;;-0.80;100.00
13080;BME280;6606;49.154;9.280;2023-02-28T03:45:36;100491.63;;;-0.78;100.00
13080;BME280;6606;49.154;9.280;2023-02-28T03:48:21;100491.59;;;-0.84;100.00
13080;BME280;6606;49.154;9.280;2023-02-28T03:51:08;100497.63;;;-0.87;100.00
13080;BME280;6606;49.154;9.280;2023-02-28T03:53:54;100488.97;;;-0.86;100.00
13080;BME280;6606;49.154;9.280;2023-02-28T03:56:44;100495.03;;;-0.85;100.00
13080;BME280;6606;49.154;9.280;2023-02-28T03:59:33;100490.66;;;-0.90;100.00
13080;BME280;6606;49.154;9.280;2023-02-28T04:02:17;100496.72;;;-0.89;100.00
13080;BME280;6606;49.154;9.280;2023-02-28T04:04:59;100498.44;;;-0.93;100.00
13080;BME280;6606;49.154;9.280;2023-02-28T04:07:41;100499.16;;;-1.07;100.00
13080;BME280;6606;49.154;9.280;2023-02-28T04:10:23;100494.03;;;-1.00;100.00
13080;BME280;6606;49.154;9.280;2023-02-28T04:13:04;100504.50;;;-0.94;100.00
13080;BME280;6606;49.154;9.280;2023-02-28T04:15:47;100494.06;;;-0.97;100.00
13080;BME280;6606;49.154;9.280;2023-02-28T04:18:29;100497.56;;;-0.93;100.00
13080;BME280;6606;49.154;9.280;2023-02-28T04:21:11;100502.84;;;-0.87;100.00
13080;BME280;6606;49.154;9.280;2023-02-28T04:23:54;100502.91;;;-0.78;100.00
13080;BME280;6606;49.154;9.280;2023-02-28T04:26:36;100500.25;;;-0.82;100.00
13080;BME280;6606;49.154;9.280;2023-02-28T04:29:20;100496.78;;;-0.84;100.00
13080;BME280;6606;49.154;9.280;2023-02-28T04:32:04;100493.28;;;-0.86;100.00
13080;BME280;6606;49.154;9.280;2023-02-28T04:34:46;100495.03;;;-0.82;100.00
13080;BME280;6606;49.154;9.280;2023-02-28T04:37:27;100496.84;;;-0.75;100.00
13080;BME280;6606;49.154;9.280;2023-02-28T04:40:10;100491.59;;;-0.80;100.00
13080;BME280;6606;49.154;9.280;2023-02-28T04:42:52;100489.97;;;-0.70;100.00
13080;BME280;6606;49.154;9.280;2023-02-28T04:45:34;100489.13;;;-0.68;100.00
13080;BME280;6606;49.154;9.280;2023-02-28T04:48:17;100497.81;;;-0.69;100.00
13080;BME280;6606;49.154;9.280;2023-02-28T04:51:00;100490.88;;;-0.65;100.00
13080;BME280;6606;49.154;9.280;2023-02-28T04:53:42;100503.03;;;-0.64;100.00
13080;BME280;6606;49.154;9.280;2023-02-28T04:56:24;100495.34;;;-0.49;100.00
13080;BME280;6606;49.154;9.280;2023-02-28T04:59:06;100502.19;;;-0.58;100.00
13080;BME280;6606;49.154;9.280;2023-02-28T05:01:49;100497.00;;;-0.60;100.00
13080;BME280;6606;49.154;9.280;2023-02-28T05:04:32;100509.28;;;-0.43;100.00
13080;BME280;6606;49.154;9.280;2023-02-28T05:07:14;100505.78;;;-0.47;100.00
13080;BME280;6606;49.154;9.280;2023-02-28T05:09:56;100499.66;;;-0.51;100.00
13080;BME280;6606;49.154;9.280;2023-02-28T05:12:38;100510.13;;;-0.48;100.00
13080;BME280;6606;49.154;9.280;2023-02-28T05:15:20;100505.75;;;-0.49;100.00
13080;BME280;6606;49.154;9.280;2023-02-28T05:18:02;100497.16;;;-0.41;100.00
13080;BME280;6606;49.154;9.280;2023-02-28T05:20:45;100502.38;;;-0.38;100.00
13080;BME280;6606;49.154;9.280;2023-02-28T05:23:27;100503.22;;;-0.41;100.00
13080;BME280;6606;49.154;9.280;2023-02-28T05:26:08;100502.28;;;-0.52;100.00
13080;BME280;6606;49.154;9.280;2023-02-28T05:28:50;100502.25;;;-0.51;100.00
13080;BME280;6606;49.154;9.280;2023-02-28T05:31:32;100510.94;;;-0.55;100.00
13080;BME280;6606;49.154;9.280;2023-02-28T05:34:14;100510.06;;;-0.51;100.00
13080;BME280;6606;49.154;9.280;2023-02-28T05:36:57;100505.66;;;-0.61;100.00
13080;BME280;6606;49.154;9.280;2023-02-28T05:39:39;100516.16;;;-0.52;100.00
13080;BME280;6606;49.154;9.280;2023-02-28T05:42:21;100510.13;;;-0.43;100.00
13080;BME280;6606;49.154;9.280;2023-02-28T05:45:03;100511.91;;;-0.42;100.00
13080;BME280;6606;49.154;9.280;2023-02-28T05:47:45;100510.97;;;-0.49;100.00
13080;BME280;6606;49.154;9.280;2023-02-28T05:50:27;100516.97;;;-0.56;100.00
13080;BME280;6606;49.154;9.280;2023-02-28T05:53:10;100514.34;;;-0.63;100.00
13080;BME280;6606;49.154;9.280;2023-02-28T05:55:52;100517.81;;;-0.63;100.00
13080;BME280;6606;49.154;9.280;2023-02-28T05:58:34;100520.44;;;-0.60;100.00
13080;BME280;6606;49.154;9.280;2023-02-28T06:01:22;100517.63;;;-0.80;100.00
13080;BME280;6606;49.154;9.280;2023-02-28T06:04:06;100514.22;;;-0.76;100.00
13080;BME280;6606;49.154;9.280;2023-02-28T06:06:49;100521.03;;;-0.89;100.00
13080;BME280;6606;49.154;9.280;2023-02-28T06:09:32;100536.63;;;-0.89;100.00
13080;BME280;6606;49.154;9.280;2023-02-28T06:12:14;100527.16;;;-0.83;100.00
13080;BME280;6606;49.154;9.280;2023-02-28T06:14:56;100526.19;;;-0.92;100.00
13080;BME280;6606;49.154;9.280;2023-02-28T06:17:37;100532.19;;;-0.99;100.00
13080;BME280;6606;49.154;9.280;2023-02-28T06:20:19;100529.63;;;-0.97;100.00
13080;BME280;6606;49.154;9.280;2023-02-28T06:23:01;100529.53;;;-1.05;100.00
13080;BME280;6606;49.154;9.280;2023-02-28T06:25:46;100533.09;;;-0.97;100.00
13080;BME280;6606;49.154;9.280;2023-02-28T06:28:28;100529.63;;;-0.96;100.00
13080;BME280;6606;49.154;9.280;2023-02-28T06:31:11;100528.53;;;-1.18;100.00
13080;BME280;6606;49.154;9.280;2023-02-28T06:33:53;100532.81;;;-1.20;100.00
13080;BME280;6606;49.154;9.280;2023-02-28T06:36:36;100541.63;;;-1.07;100.00
13080;BME280;6606;49.154;9.280;2023-02-28T06:39:17;100542.59;;;-1.00;100.00
13080;BME280;6606;49.154;9.280;2023-02-28T06:42:00;100544.31;;;-1.02;100.00
13080;BME280;6606;49.154;9.280;2023-02-28T06:44:42;100553.03;;;-0.97;100.00
13080;BME280;6606;49.154;9.280;2023-02-28T06:47:24;100556.50;;;-0.97;100.00
13080;BME280;6606;49.154;9.280;2023-02-28T06:50:07;100558.97;;;-1.07;100.00
13080;BME280;6606;49.154;9.280;2023-02-28T06:52:50;100554.72;;;-1.01;100.00
13080;BME280;6606;49.154;9.280;2023-02-28T06:55:34;100557.41;;;-0.90;100.00
13080;BME280;6606;49.154;9.280;2023-02-28T06:58:17;100561.84;;;-0.83;100.00
13080;BME280;6606;49.154;9.280;2023-02-28T07:00:59;100567.06;;;-0.80;100.00
13080;BME280;6606;49.154;9.280;2023-02-28T07:03:41;100566.13;;;-0.90;100.00
13080;BME280;6606;49.154;9.280;2023-02-28T07:06:23;100571.22;;;-1.00;100.00
13080;BME280;6606;49.154;9.280;2023-02-28T07:09:05;100574.72;;;-0.97;100.00
13080;BME280;6606;49.154;9.280;2023-02-28T07:11:47;100573.19;;;-0.79;100.00
13080;BME280;6606;49.154;9.280;2023-02-28T07:14:30;100581.78;;;-0.83;100.00
13080;BME280;6606;49.154;9.280;2023-02-28T07:17:12;100586.28;;;-0.70;100.00
13080;BME280;6606;49.154;9.280;2023-02-28T07:19:54;100589.69;;;-0.74;100.00
13080;BME280;6606;49.154;9.280;2023-02-28T07:22:35;100588.09;;;-0.63;100.00
13080;BME280;6606;49.154;9.280;2023-02-28T07:25:17;100589.75;;;-0.67;100.00
13080;BME280;6606;49.154;9.280;2023-02-28T07:27:59;100590.66;;;-0.66;100.00
13080;BME280;6606;49.154;9.280;2023-02-28T07:30:42;100579.44;;;-0.59;100.00
13080;BME280;6606;49.154;9.280;2023-02-28T07:33:24;100582.88;;;-0.63;100.00
13080;BME280;6606;49.154;9.280;2023-02-28T07:36:08;100579.56;;;-0.47;100.00
13080;BME280;6606;49.154;9.280;2023-02-28T07:38:54;100575.97;;;0.63;100.00
13080;BME280;6606;49.154;9.280;2023-02-28T07:41:36;100580.13;;;3.40;100.00
13080;BME280;6606;49.154;9.280;2023-02-28T07:44:23;100564.78;;;4.04;92.54
13080;BME280;6606;49.154;9.280;2023-02-28T07:47:06;100568.25;;;4.86;83.58
13080;BME280;6606;49.154;9.280;2023-02-28T07:49:48;100579.44;;;5.02;72.51
13080;BME280;6606;49.154;9.280;2023-02-28T07:52:30;100578.59;;;2.96;93.59
13080;BME280;6606;49.154;9.280;2023-02-28T07:55:12;100575.38;;;1.90;100.00
13080;BME280;6606;49.154;9.280;2023-02-28T07:57:56;100577.03;;;1.09;100.00
13080;BME280;6606;49.154;9.280;2023-02-28T08:00:38;100583.91;;;0.83;100.00
13080;BME280;6606;49.154;9.280;2023-02-28T08:03:22;100577.81;;;0.88;100.00
13080;BME280;6606;49.154;9.280;2023-02-28T08:06:06;100574.31;;;0.77;100.00
13080;BME280;6606;49.154;9.280;2023-02-28T08:08:48;100577.66;;;0.55;100.00
13080;BME280;6606;49.154;9.280;2023-02-28T08:11:30;100577.75;;;0.76;100.00
13080;BME280;6606;49.154;9.280;2023-02-28T08:14:12;100581.31;;;0.91;100.00
13080;BME280;6606;49.154;9.280;2023-02-28T08:16:54;100588.28;;;0.95;100.00
13080;BME280;6606;49.154;9.280;2023-02-28T08:19:37;100584.00;;;1.12;100.00
13080;BME280;6606;49.154;9.280;2023-02-28T08:22:19;100581.34;;;1.01;100.00
13080;BME280;6606;49.154;9.280;2023-02-28T08:25:01;100586.59;;;1.12;100.00
13080;BME280;6606;49.154;9.280;2023-02-28T08:27:43;100569.22;;;1.17;100.00
13080;BME280;6606;49.154;9.280;2023-02-28T08:30:24;100581.44;;;1.30;100.00
13080;BME280;6606;49.154;9.280;2023-02-28T08:33:06;100577.97;;;1.47;100.00
13080;BME280;6606;49.154;9.280;2023-02-28T08:35:52;100565.81;;;1.70;100.00
13080;BME280;6606;49.154;9.280;2023-02-28T08:38:34;100577.13;;;1.68;100.00
13080;BME280;6606;49.154;9.280;2023-02-28T08:41:15;100575.38;;;1.85;100.00
13080;BME280;6606;49.154;9.280;2023-02-28T08:43:57;100590.19;;;1.74;100.00
13080;BME280;6606;49.154;9.280;2023-02-28T08:46:39;100578.00;;;1.99;100.00
13080;BME280;6606;49.154;9.280;2023-02-28T08:49:20;100578.00;;;1.90;100.00
13080;BME280;6606;49.154;9.280;2023-02-28T08:52:04;100571.03;;;2.07;100.00
13080;BME280;6606;49.154;9.280;2023-02-28T08:54:46;100577.97;;;2.22;100.00
13080;BME280;6606;49.154;9.280;2023-02-28T08:57:28;100571.00;;;2.16;100.00
13080;BME280;6606;49.154;9.280;2023-02-28T09:00:11;100577.09;;;2.34;100.00
13080;BME280;6606;49.154;9.280;2023-02-28T09:02:54;100567.41;;;2.60;100.00
13080;BME280;6606;49.154;9.280;2023-02-28T09:05:35;100568.25;;;2.67;100.00
13080;BME280;6606;49.154;9.280;2023-02-28T09:08:18;100569.19;;;2.52;100.00
13080;BME280;6606;49.154;9.280;2023-02-28T09:11:01;100573.44;;;2.81;100.00
13080;BME280;6606;49.154;9.280;2023-02-28T09:13:43;100575.94;;;3.05;100.00
13080;BME280;6606;49.154;9.280;2023-02-28T09:16:24;100568.97;;;3.01;100.00
13080;BME280;6606;49.154;9.280;2023-02-28T09:19:06;100568.03;;;3.16;100.00
13080;BME280;6606;49.154;9.280;2023-02-28T09:21:51;100569.75;;;3.23;100.00
13080;BME280;6606;49.154;9.280;2023-02-28T09:24:35;100572.44;;;3.13;100.00
13080;BME280;6606;49.154;9.280;2023-02-28T09:27:17;100569.81;;;3.08;99.68
13080;BME280;6606;49.154;9.280;2023-02-28T09:29:58;100578.47;;;3.24;100.00
13080;BME280;6606;49.154;9.280;2023-02-28T09:32:40;100573.13;;;3.42;97.37
13080;BME280;6606;49.154;9.280;2023-02-28T09:35:23;100575.84;;;3.27;94.29
13080;BME280;6606;49.154;9.280;2023-02-28T09:38:07;100577.28;;;3.71;95.21
13080;BME280;6606;49.154;9.280;2023-02-28T09:40:55;100566.78;;;3.72;89.60
13080;BME280;6606;49.154;9.280;2023-02-28T09:43:41;100569.28;;;3.88;88.46
13080;BME280;6606;49.154;9.280;2023-02-28T09:46:31;100575.63;;;3.61;88.60
13080;BME280;6606;49.154;9.280;2023-02-28T09:49:16;100574.00;;;3.38;89.50
13080;BME280;6606;49.154;9.280;2023-02-28T09:52:00;100577.22;;;3.80;92.31
13080;BME280;6606;49.154;9.280;2023-02-28T09:54:43;100572.59;;;4.07;89.12
13080;BME280;6606;49.154;9.280;2023-02-28T09:57:32;100575.19;;;4.10;84.50
13080;BME280;6606;49.154;9.280;2023-02-28T10:00:21;100571.69;;;4.15;81.43
13080;BME280;6606;49.154;9.280;2023-02-28T10:03:24;100570.63;;;4.30;82.09
13080;BME280;6606;49.154;9.280;2023-02-28T10:06:12;100587.47;;;4.06;85.94
13080;BME280;6606;49.154;9.280;2023-02-28T10:09:00;100578.56;;;4.24;81.56
13080;BME280;6606;49.154;9.280;2023-02-28T10:11:43;100578.63;;;4.21;84.52
13080;BME280;6606;49.154;9.280;2023-02-28T10:14:29;100577.38;;;4.56;81.47
13080;BME280;6606;49.154;9.280;2023-02-28T10:17:14;100578.44;;;4.39;80.35
13080;BME280;6606;49.154;9.280;2023-02-28T10:20:00;100585.00;;;3.88;82.12
13080;BME280;6606;49.154;9.280;2023-02-28T10:22:52;100584.50;;;4.41;81.22
13080;BME280;6606;49.154;9.280;2023-02-28T10:25:37;100589.41;;;3.87;83.54
13080;BME280;6606;49.154;9.280;2023-02-28T10:28:18;100589.34;;;3.93;84.06
13080;BME280;6606;49.154;9.280;2023-02-28T10:31:02;100590.16;;;3.99;83.81
13080;BME280;6606;49.154;9.280;2023-02-28T10:33:44;100587.53;;;3.99;82.88
13080;BME280;6606;49.154;9.280;2023-02-28T10:36:26;100585.56;;;4.25;78.45
13080;BME280;6606;49.154;9.280;2023-02-28T10:42:29;100581.75;;;4.54;75.15
13080;BME280;6606;49.154;9.280;2023-02-28T10:45:13;100587.13;;;4.45;76.21
13080;BME280;6606;49.154;9.280;2023-02-28T10:47:57;100575.69;;;4.50;77.76
13080;BME280;6606;49.154;9.280;2023-02-28T10:50:44;100583.19;;;4.82;72.37
13080;BME280;6606;49.154;9.280;2023-02-28T10:53:32;100579.66;;;4.83;71.27
13080;BME280;6606;49.154;9.280;2023-02-28T10:56:19;100578.72;;;4.89;75.91
13080;BME280;6606;49.154;9.280;2023-02-28T10:59:20;100572.16;;;5.21;70.23
13080;BME280;6606;49.154;9.280;2023-02-28T11:02:29;100578.88;;;5.42;66.54
13080;BME280;6606;49.154;9.280;2023-02-28T11:05:28;100572.56;;;5.55;65.13
13080;BME280;6606;49.154;9.280;2023-02-28T11:08:12;100582.78;;;5.15;68.88
13080;BME280;6606;49.154;9.280;2023-02-28T11:10:57;100569.53;;;5.21;72.73
13080;BME280;6606;49.154;9.280;2023-02-28T11:13:40;100561.38;;;5.41;66.36
13080;BME280;6606;49.154;9.280;2023-02-28T11:16:32;100572.03;;;5.32;65.47
13080;BME280;6606;49.154;9.280;2023-02-28T11:19:19;100573.63;;;5.42;71.04
13080;BME280;6606;49.154;9.280;2023-02-28T11:22:04;100565.41;;;5.66;64.61
13080;BME280;6606;49.154;9.280;2023-02-28T11:24:49;100560.38;;;6.05;62.78
13080;BME280;6606;49.154;9.280;2023-02-28T11:27:49;100566.09;;;5.19;70.76
13080;BME280;6606;49.154;9.280;2023-02-28T11:30:34;100565.03;;;5.31;68.51
13080;BME280;6606;49.154;9.280;2023-02-28T11:33:27;100558.13;;;5.23;67.13
13080;BME280;6606;49.154;9.280;2023-02-28T11:36:12;100553.28;;;5.56;66.89
13080;BME280;6606;49.154;9.280;2023-02-28T11:38:59;100554.97;;;4.97;71.59
13080;BME280;6606;49.154;9.280;2023-02-28T11:41:58;100555.38;;;5.33;66.58
13080;BME280;6606;49.154;9.280;2023-02-28T11:45:03;100556.59;;;5.66;64.25
13080;BME280;6606;49.154;9.280;2023-02-28T11:47:57;100550.72;;;6.06;64.85
13080;BME280;6606;49.154;9.280;2023-02-28T11:50:54;100547.06;;;5.60;66.23
13080;BME280;6606;49.154;9.280;2023-02-28T11:54:00;100549.06;;;6.00;61.91
13080;BME280;6606;49.154;9.280;2023-02-28T11:56:52;100545.69;;;6.85;59.45
13080;BME280;6606;49.154;9.280;2023-02-28T11:59:51;100538.16;;;6.67;55.20
13080;BME280;6606;49.154;9.280;2023-02-28T12:02:53;100540.25;;;6.93;54.10
13080;BME280;6606;49.154;9.280;2023-02-28T12:05:43;100532.53;;;7.63;50.67
13080;BME280;6606;49.154;9.280;2023-02-28T12:08:43;100535.59;;;8.14;48.86
13080;BME280;6606;49.154;9.280;2023-02-28T12:11:37;100544.66;;;8.04;48.29
13080;BME280;6606;49.154;9.280;2023-02-28T12:14:37;100533.78;;;7.82;49.73
13080;BME280;6606;49.154;9.280;2023-02-28T12:17:38;100539.00;;;7.11;50.68
13080;BME280;6606;49.154;9.280;2023-02-28T12:20:29;100552.16;;;6.69;54.29
13080;BME280;6606;49.154;9.280;2023-02-28T12:26:36;100530.81;;;6.39;56.47
13080;BME280;6606;49.154;9.280;2023-02-28T12:29:23;100534.44;;;6.77;56.92
13080;BME280;6606;49.154;9.280;2023-02-28T12:32:09;100534.78;;;6.62;56.43
13080;BME280;6606;49.154;9.280;2023-02-28T12:34:57;100535.41;;;6.28;56.50
13080;BME280;6606;49.154;9.280;2023-02-28T12:37:46;100534.38;;;6.80;58.27
13080;BME280;6606;49.154;9.280;2023-02-28T12:40:42;100530.38;;;6.62;55.69
13080;BME280;6606;49.154;9.280;2023-02-28T12:43:31;100522.22;;;6.29;59.78
13080;BME280;6606;49.154;9.280;2023-02-28T12:46:17;100527.81;;;6.57;58.01
13080;BME280;6606;49.154;9.280;2023-02-28T12:49:06;100528.03;;;6.47;57.91
13080;BME280;6606;49.154;9.280;2023-02-28T12:51:50;100541.53;;;6.75;57.16
13080;BME280;6606;49.154;9.280;2023-02-28T12:54:42;100523.91;;;6.77;53.96
13080;BME280;6606;49.154;9.280;2023-02-28T12:57:32;100518.00;;;6.21;57.91
13080;BME280;6606;49.154;9.280;2023-02-28T13:00:21;100535.88;;;6.48;58.36
13080;BME280;6606;49.154;9.280;2023-02-28T13:03:24;100525.56;;;6.37;54.96
13080;BME280;6606;49.154;9.280;2023-02-28T13:06:28;100507.19;;;6.36;59.68
13080;BME280;6606;49.154;9.280;2023-02-28T13:09:19;100499.84;;;6.52;58.84
13080;BME280;6606;49.154;9.280;2023-02-28T13:12:12;100507.25;;;6.33;56.40
13080;BME280;6606;49.154;9.280;2023-02-28T13:15:07;100502.72;;;6.39;58.67
13080;BME280;6606;49.154;9.280;2023-02-28T13:17:56;100501.16;;;6.73;54.52
13080;BME280;6606;49.154;9.280;2023-02-28T13:20:47;100503.41;;;6.49;56.59
13080;BME280;6606;49.154;9.280;2023-02-28T13:24:00;100516.50;;;6.52;60.64
13080;BME280;6606;49.154;9.280;2023-02-28T13:33:33;100483.22;;;6.90;52.41
13080;BME280;6606;49.154;9.280;2023-02-28T13:36:26;100508.81;;;6.42;53.99
13080;BME280;6606;49.154;9.280;2023-02-28T13:42:34;100488.88;;;6.30;58.86
13080;BME280;6606;49.154;9.280;2023-02-28T13:45:25;100520.47;;;6.30;55.97
13080;BME280;6606;49.154;9.280;2023-02-28T13:48:19;100501.59;;;6.06;56.40
13080;BME280;6606;49.154;9.280;2023-02-28T13:51:31;100506.75;;;6.12;56.85
13080;BME280;6606;49.154;9.280;2023-02-28T13:54:39;100496.91;;;6.66;58.08
13080;BME280;6606;49.154;9.280;2023-02-28T13:57:40;100490.75;;;6.67;55.85
13080;BME280;6606;49.154;9.280;2023-02-28T14:00:36;100492.03;;;6.47;55.55
13080;BME280;6606;49.154;9.280;2023-02-28T14:03:38;100493.66;;;6.53;55.19
13080;BME280;6606;49.154;9.280;2023-02-28T14:06:25;100506.59;;;6.64;55.19
13080;BME280;6606;49.154;9.280;2023-02-28T14:09:21;100499.22;;;6.81;56.37
13080;BME280;6606;49.154;9.280;2023-02-28T14:15:36;100492.09;;;6.86;54.63
13080;BME280;6606;49.154;9.280;2023-02-28T14:18:23;100511.09;;;6.58;55.71
13080;BME280;6606;49.154;9.280;2023-02-28T14:21:12;100494.16;;;6.28;56.82
13080;BME280;6606;49.154;9.280;2023-02-28T14:27:32;100499.16;;;6.86;54.44
13080;BME280;6606;49.154;9.280;2023-02-28T14:30:37;100493.97;;;6.81;53.10
13080;BME280;6606;49.154;9.280;2023-02-28T14:33:26;100481.38;;;6.94;52.89
13080;BME280;6606;49.154;9.280;2023-02-28T14:36:16;100482.59;;;7.18;51.59
13080;BME280;6606;49.154;9.280;2023-02-28T14:39:01;100485.81;;;7.31;50.07
13080;BME280;6606;49.154;9.280;2023-02-28T14:41:49;100478.09;;;7.59;50.33
13080;BME280;6606;49.154;9.280;2023-02-28T14:44:32;100484.03;;;7.31;49.34
13080;BME280;6606;49.154;9.280;2023-02-28T14:47:15;100480.38;;;7.38;49.94
13080;BME280;6606;49.154;9.280;2023-02-28T14:49:58;100483.56;;;7.14;50.82
13080;BME280;6606;49.154;9.280;2023-02-28T14:52:43;100485.59;;;7.02;52.45
13080;BME280;6606;49.154;9.280;2023-02-28T14:55:28;100485.25;;;7.16;52.19
13080;BME280;6606;49.154;9.280;2023-02-28T14:58:23;100478.41;;;7.46;51.30
13080;BME280;6606;49.154;9.280;2023-02-28T15:01:10;100489.63;;;6.78;51.53